sensor_id;sensor_type;location;lat;lon;timestamp;pressure;altitude;pressure_sealevel;temperature;humidity
60715;BME280;46564;53.096;8.246;2023-07-24T00:01:02;57128.34;;;-147.53;100.00
60715;BME280;46564;53.096;8.246;2023-07-24T00:06:03;57128.34;;;-147.53;100.00
60715;BME280;46564;53.096;8.246;2023-07-24T00:11:08;57128.34;;;-147.53;100.00
60715;BME280;46564;53.096;8.246;2023-07-24T00:16:09;57128.34;;;-147.53;100.00
60715;BME280;46564;53.096;8.246;2023-07-24T00:21:11;57128.34;;;-147.53;100.00
60715;BME280;46564;53.096;8.246;2023-07-24T00:26:12;57128.34;;;-147.53;100.00
60715;BME280;46564;53.096;8.246;2023-07-24T00:31:13;57128.34;;;-147.53;100.00
60715;BME280;46564;53.096;8.246;2023-07-24T00:36:15;57128.34;;;-147.53;100.00
60715;BME280;46564;53.096;8.246;2023-07-24T00:41:17;57128.34;;;-147.53;100.00
60715;BME280;46564;53.096;8.246;2023-07-24T00:46:18;57128.34;;;-147.53;100.00
60715;BME280;46564;53.096;8.246;2023-07-24T00:51:20;57128.34;;;-147.53;100.00
60715;BME280;46564;53.096;8.246;2023-07-24T00:56:22;57128.34;;;-147.53;100.00
60715;BME280;46564;53.096;8.246;2023-07-24T01:01:24;57128.34;;;-147.53;100.00
60715;BME280;46564;53.096;8.246;2023-07-24T01:06:26;57128.34;;;-147.53;100.00
60715;BME280;46564;53.096;8.246;2023-07-24T01:11:33;57128.34;;;-147.53;100.00
60715;BME280;46564;53.096;8.246;2023-07-24T01:16:37;57128.34;;;-147.53;100.00
60715;BME280;46564;53.096;8.246;2023-07-24T01:21:58;57128.34;;;-147.53;100.00
60715;BME280;46564;53.096;8.246;2023-07-24T01:27:02;57128.34;;;-147.53;100.00
60715;BME280;46564;53.096;8.246;2023-07-24T01:32:04;57128.34;;;-147.53;100.00
60715;BME280;46564;53.096;8.246;2023-07-24T01:37:06;57128.34;;;-147.53;100.00
60715;BME280;46564;53.096;8.246;2023-07-24T01:42:08;57128.34;;;-147.53;100.00
60715;BME280;46564;53.096;8.246;2023-07-24T01:47:10;57128.34;;;-147.53;100.00
60715;BME280;46564;53.096;8.246;2023-07-24T01:52:11;57128.34;;;-147.53;100.00
60715;BME280;46564;53.096;8.246;2023-07-24T01:57:14;57128.34;;;-147.53;100.00
60715;BME280;46564;53.096;8.246;2023-07-24T02:02:16;57128.34;;;-147.53;100.00
60715;BME280;46564;53.096;8.246;2023-07-24T02:07:17;57128.34;;;-147.53;100.00
60715;BME280;46564;53.096;8.246;2023-07-24T02:12:19;57128.34;;;-147.53;100.00
60715;BME280;46564;53.096;8.246;2023-07-24T02:17:20;57128.34;;;-147.53;100.00
60715;BME280;46564;53.096;8.246;2023-07-24T02:22:22;57128.34;;;-147.53;100.00
60715;BME280;46564;53.096;8.246;2023-07-24T02:27:28;57128.34;;;-147.53;100.00
60715;BME280;46564;53.096;8.246;2023-07-24T02:32:29;57128.34;;;-147.53;100.00
60715;BME280;46564;53.096;8.246;2023-07-24T02:37:31;57128.34;;;-147.53;100.00
60715;BME280;46564;53.096;8.246;2023-07-24T02:42:32;57128.34;;;-147.53;100.00
60715;BME280;46564;53.096;8.246;2023-07-24T02:47:34;57128.34;;;-147.53;100.00
60715;BME280;46564;53.096;8.246;2023-07-24T02:52:35;57128.34;;;-147.53;100.00
60715;BME280;46564;53.096;8.246;2023-07-24T02:57:37;57128.34;;;-147.53;100.00
60715;BME280;46564;53.096;8.246;2023-07-24T03:02:39;57128.34;;;-147.53;100.00
60715;BME280;46564;53.096;8.246;2023-07-24T03:07:40;57128.34;;;-147.53;100.00
60715;BME280;46564;53.096;8.246;2023-07-24T03:12:42;57128.34;;;-147.53;100.00
60715;BME280;46564;53.096;8.246;2023-07-24T03:17:43;57128.34;;;-147.53;100.00
60715;BME280;46564;53.096;8.246;2023-07-24T03:22:45;57128.34;;;-147.53;100.00
60715;BME280;46564;53.096;8.246;2023-07-24T03:27:46;57128.34;;;-147.53;100.00
60715;BME280;46564;53.096;8.246;2023-07-24T03:32:48;57128.34;;;-147.53;100.00
60715;BME280;46564;53.096;8.246;2023-07-24T03:37:49;57128.34;;;-147.53;100.00
60715;BME280;46564;53.096;8.246;2023-07-24T03:42:51;57128.34;;;-147.53;100.00
60715;BME280;46564;53.096;8.246;2023-07-24T03:47:52;57128.34;;;-147.53;100.00
60715;BME280;46564;53.096;8.246;2023-07-24T03:52:54;57128.34;;;-147.53;100.00
60715;BME280;46564;53.096;8.246;2023-07-24T03:57:55;57128.34;;;-147.53;100.00
60715;BME280;46564;53.096;8.246;2023-07-24T04:02:57;57128.34;;;-147.53;100.00
60715;BME280;46564;53.096;8.246;2023-07-24T04:07:58;57128.34;;;-147.53;100.00
60715;BME280;46564;53.096;8.246;2023-07-24T04:13:00;57128.34;;;-147.53;100.00
60715;BME280;46564;53.096;8.246;2023-07-24T04:18:01;57128.34;;;-147.53;100.00
60715;BME280;46564;53.096;8.246;2023-07-24T04:23:03;57128.34;;;-147.53;100.00
60715;BME280;46564;53.096;8.246;2023-07-24T04:28:04;57128.34;;;-147.53;100.00
60715;BME280;46564;53.096;8.246;2023-07-24T04:33:06;57128.34;;;-147.53;100.00
60715;BME280;46564;53.096;8.246;2023-07-24T04:38:07;57128.34;;;-147.53;100.00
60715;BME280;46564;53.096;8.246;2023-07-24T04:43:08;57128.34;;;-147.53;100.00
60715;BME280;46564;53.096;8.246;2023-07-24T04:48:10;57128.34;;;-147.53;100.00
60715;BME280;46564;53.096;8.246;2023-07-24T04:53:11;57128.34;;;-147.53;100.00
60715;BME280;46564;53.096;8.246;2023-07-24T04:58:13;57128.34;;;-147.53;100.00
60715;BME280;46564;53.096;8.246;2023-07-24T05:03:14;57128.34;;;-147.53;100.00
60715;BME280;46564;53.096;8.246;2023-07-24T05:08:16;57128.34;;;-147.53;100.00
60715;BME280;46564;53.096;8.246;2023-07-24T05:13:17;57128.34;;;-147.53;100.00
60715;BME280;46564;53.096;8.246;2023-07-24T05:18:19;57128.34;;;-147.53;100.00
60715;BME280;46564;53.096;8.246;2023-07-24T05:23:20;57128.34;;;-147.53;100.00
60715;BME280;46564;53.096;8.246;2023-07-24T05:28:22;57128.34;;;-147.53;100.00
60715;BME280;46564;53.096;8.246;2023-07-24T05:33:23;57128.34;;;-147.53;100.00
60715;BME280;46564;53.096;8.246;2023-07-24T05:38:25;57128.34;;;-147.53;100.00
60715;BME280;46564;53.096;8.246;2023-07-24T05:43:27;57128.34;;;-147.53;100.00
60715;BME280;46564;53.096;8.246;2023-07-24T05:48:29;57128.34;;;-147.53;100.00
60715;BME280;46564;53.096;8.246;2023-07-24T05:53:30;57128.34;;;-147.53;100.00
60715;BME280;46564;53.096;8.246;2023-07-24T05:58:31;57128.34;;;-147.53;100.00
60715;BME280;46564;53.096;8.246;2023-07-24T06:03:33;57128.34;;;-147.53;100.00
60715;BME280;46564;53.096;8.246;2023-07-24T06:08:35;57128.34;;;-147.53;100.00
60715;BME280;46564;53.096;8.246;2023-07-24T06:13:36;57128.34;;;-147.53;100.00
60715;BME280;46564;53.096;8.246;2023-07-24T06:18:37;57128.34;;;-147.53;100.00
60715;BME280;46564;53.096;8.246;2023-07-24T06:23:39;57128.34;;;-147.53;100.00
60715;BME280;46564;53.096;8.246;2023-07-24T06:28:40;57128.34;;;-147.53;100.00
60715;BME280;46564;53.096;8.246;2023-07-24T06:33:42;57128.34;;;-147.53;100.00
60715;BME280;46564;53.096;8.246;2023-07-24T06:38:43;57128.34;;;-147.53;100.00
60715;BME280;46564;53.096;8.246;2023-07-24T06:43:45;57128.34;;;-147.53;100.00
60715;BME280;46564;53.096;8.246;2023-07-24T06:48:46;57128.34;;;-147.53;100.00
60715;BME280;46564;53.096;8.246;2023-07-24T06:53:48;57128.34;;;-147.53;100.00
60715;BME280;46564;53.096;8.246;2023-07-24T06:58:49;57128.34;;;-147.53;100.00
60715;BME280;46564;53.096;8.246;2023-07-24T07:03:50;57128.34;;;-147.53;100.00
60715;BME280;46564;53.096;8.246;2023-07-24T07:08:52;57128.34;;;-147.53;100.00
60715;BME280;46564;53.096;8.246;2023-07-24T07:13:53;57128.34;;;-147.53;100.00
60715;BME280;46564;53.096;8.246;2023-07-24T07:18:55;57128.34;;;-147.53;100.00
60715;BME280;46564;53.096;8.246;2023-07-24T07:23:56;57128.34;;;-147.53;100.00
60715;BME280;46564;53.096;8.246;2023-07-24T07:28:57;57128.34;;;-147.53;100.00
60715;BME280;46564;53.096;8.246;2023-07-24T07:33:59;57128.34;;;-147.53;100.00
60715;BME280;46564;53.096;8.246;2023-07-24T07:39:01;57128.34;;;-147.53;100.00
60715;BME280;46564;53.096;8.246;2023-07-24T07:44:02;57128.34;;;-147.53;100.00
60715;BME280;46564;53.096;8.246;2023-07-24T07:49:03;57128.34;;;-147.53;100.00
60715;BME280;46564;53.096;8.246;2023-07-24T07:54:05;57128.34;;;-147.53;100.00
60715;BME280;46564;53.096;8.246;2023-07-24T07:59:06;57128.34;;;-147.53;100.00
60715;BME280;46564;53.096;8.246;2023-07-24T08:04:08;57128.34;;;-147.53;100.00
60715;BME280;46564;53.096;8.246;2023-07-24T08:09:09;57128.34;;;-147.53;100.00
60715;BME280;46564;53.096;8.246;2023-07-24T08:14:11;57128.34;;;-147.53;100.00
60715;BME280;46564;53.096;8.246;2023-07-24T08:19:12;57128.34;;;-147.53;100.00
60715;BME280;46564;53.096;8.246;2023-07-24T08:24:13;57128.34;;;-147.53;100.00
60715;BME280;46564;53.096;8.246;2023-07-24T08:29:15;57128.34;;;-147.53;100.00
60715;BME280;46564;53.096;8.246;2023-07-24T08:34:16;57128.34;;;-147.53;100.00
60715;BME280;46564;53.096;8.246;2023-07-24T08:39:18;57128.34;;;-147.53;100.00
60715;BME280;46564;53.096;8.246;2023-07-24T08:44:20;57128.34;;;-147.53;100.00
60715;BME280;46564;53.096;8.246;2023-07-24T08:49:22;57128.34;;;-147.53;100.00
60715;BME280;46564;53.096;8.246;2023-07-24T08:54:26;57128.34;;;-147.53;100.00
60715;BME280;46564;53.096;8.246;2023-07-24T08:59:27;57128.34;;;-147.53;100.00
60715;BME280;46564;53.096;8.246;2023-07-24T09:04:29;57128.34;;;-147.53;100.00
60715;BME280;46564;53.096;8.246;2023-07-24T09:09:30;57128.34;;;-147.53;100.00
60715;BME280;46564;53.096;8.246;2023-07-24T09:14:32;57128.34;;;-147.53;100.00
60715;BME280;46564;53.096;8.246;2023-07-24T09:19:33;57128.34;;;-147.53;100.00
60715;BME280;46564;53.096;8.246;2023-07-24T09:24:35;57128.34;;;-147.53;100.00
60715;BME280;46564;53.096;8.246;2023-07-24T09:29:36;57128.34;;;-147.53;100.00
60715;BME280;46564;53.096;8.246;2023-07-24T09:34:42;57128.34;;;-147.53;100.00
60715;BME280;46564;53.096;8.246;2023-07-24T09:39:46;57128.34;;;-147.53;100.00
60715;BME280;46564;53.096;8.246;2023-07-24T09:44:47;57128.34;;;-147.53;100.00
60715;BME280;46564;53.096;8.246;2023-07-24T09:49:50;57128.34;;;-147.53;100.00
60715;BME280;46564;53.096;8.246;2023-07-24T09:59:54;57128.34;;;-147.53;100.00
60715;BME280;46564;53.096;8.246;2023-07-24T10:04:57;57128.34;;;-147.53;100.00
60715;BME280;46564;53.096;8.246;2023-07-24T10:10:00;57128.34;;;-147.53;100.00
60715;BME280;46564;53.096;8.246;2023-07-24T10:15:02;57128.34;;;-147.53;100.00
60715;BME280;46564;53.096;8.246;2023-07-24T10:20:11;57128.34;;;-147.53;100.00
60715;BME280;46564;53.096;8.246;2023-07-24T10:25:13;57128.34;;;-147.53;100.00
60715;BME280;46564;53.096;8.246;2023-07-24T10:30:15;57128.34;;;-147.53;100.00
60715;BME280;46564;53.096;8.246;2023-07-24T10:35:19;57128.34;;;-147.53;100.00
60715;BME280;46564;53.096;8.246;2023-07-24T10:40:21;57128.34;;;-147.53;100.00
60715;BME280;46564;53.096;8.246;2023-07-24T10:45:22;57128.34;;;-147.53;100.00
60715;BME280;46564;53.096;8.246;2023-07-24T10:50:24;57128.34;;;-147.53;100.00
60715;BME280;46564;53.096;8.246;2023-07-24T10:55:26;57128.34;;;-147.53;100.00
60715;BME280;46564;53.096;8.246;2023-07-24T11:00:28;57128.34;;;-147.53;100.00
60715;BME280;46564;53.096;8.246;2023-07-24T11:05:29;57128.34;;;-147.53;100.00
60715;BME280;46564;53.096;8.246;2023-07-24T11:10:32;57128.34;;;-147.53;100.00
60715;BME280;46564;53.096;8.246;2023-07-24T11:15:34;57128.34;;;-147.53;100.00
60715;BME280;46564;53.096;8.246;2023-07-24T11:20:51;57128.34;;;-147.53;100.00
60715;BME280;46564;53.096;8.246;2023-07-24T11:25:54;57128.34;;;-147.53;100.00
60715;BME280;46564;53.096;8.246;2023-07-24T11:31:02;57128.34;;;-147.53;100.00
60715;BME280;46564;53.096;8.246;2023-07-24T11:36:04;99962.16;;;23.88;61.93
60715;BME280;46564;53.096;8.246;2023-07-24T11:41:05;99948.72;;;24.41;61.05
60715;BME280;46564;53.096;8.246;2023-07-24T11:46:09;99953.22;;;24.40;60.76
60715;BME280;46564;53.096;8.246;2023-07-24T11:51:12;57128.34;;;-147.53;100.00
60715;BME280;46564;53.096;8.246;2023-07-24T11:56:15;57128.34;;;-147.53;100.00
60715;BME280;46564;53.096;8.246;2023-07-24T12:01:17;57128.34;;;-147.53;100.00
60715;BME280;46564;53.096;8.246;2023-07-24T12:06:18;57128.34;;;-147.53;100.00
60715;BME280;46564;53.096;8.246;2023-07-24T12:11:20;57128.34;;;-147.53;100.00
60715;BME280;46564;53.096;8.246;2023-07-24T12:16:21;57128.34;;;-147.53;100.00
60715;BME280;46564;53.096;8.246;2023-07-24T12:21:22;99944.72;;;24.32;60.04
60715;BME280;46564;53.096;8.246;2023-07-24T12:26:24;99932.78;;;24.55;58.08
60715;BME280;46564;53.096;8.246;2023-07-24T12:31:25;99933.28;;;24.12;57.67
60715;BME280;46564;53.096;8.246;2023-07-24T12:36:27;99925.47;;;24.25;58.04
60715;BME280;46564;53.096;8.246;2023-07-24T12:41:28;99923.56;;;24.27;58.62
60715;BME280;46564;53.096;8.246;2023-07-24T12:46:30;99919.28;;;24.07;59.17
60715;BME280;46564;53.096;8.246;2023-07-24T12:51:32;99907.34;;;24.14;59.11
60715;BME280;46564;53.096;8.246;2023-07-24T12:56:34;99907.44;;;23.95;58.68
60715;BME280;46564;53.096;8.246;2023-07-24T13:01:35;99919.78;;;23.98;59.40
60715;BME280;46564;53.096;8.246;2023-07-24T13:06:37;99912.84;;;23.76;59.50
60715;BME280;46564;53.096;8.246;2023-07-24T13:11:38;99909.69;;;23.68;59.52
60715;BME280;46564;53.096;8.246;2023-07-24T13:16:40;99913.13;;;23.35;60.01
60715;BME280;46564;53.096;8.246;2023-07-24T13:21:41;99909.38;;;23.39;59.71
60715;BME280;46564;53.096;8.246;2023-07-24T13:26:43;57128.34;;;-147.53;100.00
60715;BME280;46564;53.096;8.246;2023-07-24T13:31:44;57128.34;;;-147.53;100.00
60715;BME280;46564;53.096;8.246;2023-07-24T13:36:46;57128.34;;;-147.53;100.00
60715;BME280;46564;53.096;8.246;2023-07-24T13:41:47;57128.34;;;-147.53;100.00
60715;BME280;46564;53.096;8.246;2023-07-24T13:46:49;57128.34;;;-147.53;100.00
60715;BME280;46564;53.096;8.246;2023-07-24T13:51:50;57128.34;;;-147.53;100.00
60715;BME280;46564;53.096;8.246;2023-07-24T13:56:52;57128.34;;;-147.53;100.00
60715;BME280;46564;53.096;8.246;2023-07-24T14:01:53;57128.34;;;-147.53;100.00
60715;BME280;46564;53.096;8.246;2023-07-24T14:06:55;57128.34;;;-147.53;100.00
60715;BME280;46564;53.096;8.246;2023-07-24T14:11:56;57128.34;;;-147.53;100.00
60715;BME280;46564;53.096;8.246;2023-07-24T14:16:58;57128.34;;;-147.53;100.00
60715;BME280;46564;53.096;8.246;2023-07-24T14:21:59;57128.34;;;-147.53;100.00
60715;BME280;46564;53.096;8.246;2023-07-24T14:27:01;57128.34;;;-147.53;100.00
60715;BME280;46564;53.096;8.246;2023-07-24T14:32:02;57128.34;;;-147.53;100.00
60715;BME280;46564;53.096;8.246;2023-07-24T14:37:04;57128.34;;;-147.53;100.00
60715;BME280;46564;53.096;8.246;2023-07-24T14:42:06;57128.34;;;-147.53;100.00
60715;BME280;46564;53.096;8.246;2023-07-24T14:47:07;57128.34;;;-147.53;100.00
60715;BME280;46564;53.096;8.246;2023-07-24T14:52:09;57128.34;;;-147.53;100.00
60715;BME280;46564;53.096;8.246;2023-07-24T14:57:10;57128.34;;;-147.53;100.00
60715;BME280;46564;53.096;8.246;2023-07-24T15:02:24;57128.34;;;-147.53;100.00
60715;BME280;46564;53.096;8.246;2023-07-24T15:07:26;57128.34;;;-147.53;100.00
60715;BME280;46564;53.096;8.246;2023-07-24T15:12:27;57128.34;;;-147.53;100.00
60715;BME280;46564;53.096;8.246;2023-07-24T15:17:29;57128.34;;;-147.53;100.00
60715;BME280;46564;53.096;8.246;2023-07-24T15:22:30;57128.34;;;-147.53;100.00
60715;BME280;46564;53.096;8.246;2023-07-24T15:27:32;57128.34;;;-147.53;100.00
60715;BME280;46564;53.096;8.246;2023-07-24T15:32:33;57128.34;;;-147.53;100.00
60715;BME280;46564;53.096;8.246;2023-07-24T15:37:35;57128.34;;;-147.53;100.00
60715;BME280;46564;53.096;8.246;2023-07-24T15:42:36;57128.34;;;-147.53;100.00
60715;BME280;46564;53.096;8.246;2023-07-24T15:47:38;57128.34;;;-147.53;100.00
60715;BME280;46564;53.096;8.246;2023-07-24T15:52:40;57128.34;;;-147.53;100.00
60715;BME280;46564;53.096;8.246;2023-07-24T15:57:41;57128.34;;;-147.53;100.00
60715;BME280;46564;53.096;8.246;2023-07-24T16:02:42;57128.34;;;-147.53;100.00
60715;BME280;46564;53.096;8.246;2023-07-24T16:07:44;57128.34;;;-147.53;100.00
60715;BME280;46564;53.096;8.246;2023-07-24T16:12:46;57128.34;;;-147.53;100.00
60715;BME280;46564;53.096;8.246;2023-07-24T16:17:47;57128.34;;;-147.53;100.00
60715;BME280;46564;53.096;8.246;2023-07-24T16:22:52;57128.34;;;-147.53;100.00
60715;BME280;46564;53.096;8.246;2023-07-24T16:27:53;57128.34;;;-147.53;100.00
60715;BME280;46564;53.096;8.246;2023-07-24T16:32:54;57128.34;;;-147.53;100.00
60715;BME280;46564;53.096;8.246;2023-07-24T16:37:56;57128.34;;;-147.53;100.00
60715;BME280;46564;53.096;8.246;2023-07-24T16:42:57;57128.34;;;-147.53;100.00
60715;BME280;46564;53.096;8.246;2023-07-24T16:47:59;57128.34;;;-147.53;100.00
60715;BME280;46564;53.096;8.246;2023-07-24T16:53:04;57128.34;;;-147.53;100.00
60715;BME280;46564;53.096;8.246;2023-07-24T16:58:05;57128.34;;;-147.53;100.00
60715;BME280;46564;53.096;8.246;2023-07-24T17:03:07;57128.34;;;-147.53;100.00
60715;BME280;46564;53.096;8.246;2023-07-24T17:08:08;57128.34;;;-147.53;100.00
60715;BME280;46564;53.096;8.246;2023-07-24T17:13:10;57128.34;;;-147.53;100.00
60715;BME280;46564;53.096;8.246;2023-07-24T17:18:12;57128.34;;;-147.53;100.00
60715;BME280;46564;53.096;8.246;2023-07-24T17:23:13;57128.34;;;-147.53;100.00
60715;BME280;46564;53.096;8.246;2023-07-24T17:28:15;57128.34;;;-147.53;100.00
60715;BME280;46564;53.096;8.246;2023-07-24T17:33:17;57128.34;;;-147.53;100.00
60715;BME280;46564;53.096;8.246;2023-07-24T17:38:18;57128.34;;;-147.53;100.00
60715;BME280;46564;53.096;8.246;2023-07-24T17:43:20;57128.34;;;-147.53;100.00
60715;BME280;46564;53.096;8.246;2023-07-24T17:48:21;57128.34;;;-147.53;100.00
60715;BME280;46564;53.096;8.246;2023-07-24T17:53:22;57128.34;;;-147.53;100.00
60715;BME280;46564;53.096;8.246;2023-07-24T17:58:24;57128.34;;;-147.53;100.00
60715;BME280;46564;53.096;8.246;2023-07-24T18:03:25;57128.34;;;-147.53;100.00
60715;BME280;46564;53.096;8.246;2023-07-24T18:08:27;57128.34;;;-147.53;100.00
60715;BME280;46564;53.096;8.246;2023-07-24T18:13:28;57128.34;;;-147.53;100.00
60715;BME280;46564;53.096;8.246;2023-07-24T18:18:30;57128.34;;;-147.53;100.00
60715;BME280;46564;53.096;8.246;2023-07-24T18:23:31;57128.34;;;-147.53;100.00
60715;BME280;46564;53.096;8.246;2023-07-24T18:28:33;57128.34;;;-147.53;100.00
60715;BME280;46564;53.096;8.246;2023-07-24T18:33:34;57128.34;;;-147.53;100.00
60715;BME280;46564;53.096;8.246;2023-07-24T18:38:36;57128.34;;;-147.53;100.00
60715;BME280;46564;53.096;8.246;2023-07-24T18:43:37;57128.34;;;-147.53;100.00
60715;BME280;46564;53.096;8.246;2023-07-24T18:48:39;57128.34;;;-147.53;100.00
60715;BME280;46564;53.096;8.246;2023-07-24T18:53:40;57128.34;;;-147.53;100.00
60715;BME280;46564;53.096;8.246;2023-07-24T18:58:42;57128.34;;;-147.53;100.00
60715;BME280;46564;53.096;8.246;2023-07-24T19:03:43;57128.34;;;-147.53;100.00
60715;BME280;46564;53.096;8.246;2023-07-24T19:08:46;57128.34;;;-147.53;100.00
60715;BME280;46564;53.096;8.246;2023-07-24T19:13:47;57128.34;;;-147.53;100.00
60715;BME280;46564;53.096;8.246;2023-07-24T19:18:49;57128.34;;;-147.53;100.00
60715;BME280;46564;53.096;8.246;2023-07-24T19:23:50;57128.34;;;-147.53;100.00
60715;BME280;46564;53.096;8.246;2023-07-24T19:28:51;57128.34;;;-147.53;100.00
60715;BME280;46564;53.096;8.246;2023-07-24T19:33:53;57128.34;;;-147.53;100.00
60715;BME280;46564;53.096;8.246;2023-07-24T19:38:54;57128.34;;;-147.53;100.00
60715;BME280;46564;53.096;8.246;2023-07-24T19:43:56;57128.34;;;-147.53;100.00
60715;BME280;46564;53.096;8.246;2023-07-24T19:48:59;57128.34;;;-147.53;100.00
60715;BME280;46564;53.096;8.246;2023-07-24T19:54:01;57128.34;;;-147.53;100.00
60715;BME280;46564;53.096;8.246;2023-07-24T19:59:02;57128.34;;;-147.53;100.00
60715;BME280;46564;53.096;8.246;2023-07-24T20:04:04;57128.34;;;-147.53;100.00
60715;BME280;46564;53.096;8.246;2023-07-24T20:09:05;57128.34;;;-147.53;100.00
60715;BME280;46564;53.096;8.246;2023-07-24T20:14:06;57128.34;;;-147.53;100.00
60715;BME280;46564;53.096;8.246;2023-07-24T20:19:08;57128.34;;;-147.53;100.00
60715;BME280;46564;53.096;8.246;2023-07-24T20:24:11;57128.34;;;-147.53;100.00
60715;BME280;46564;53.096;8.246;2023-07-24T20:29:12;57128.34;;;-147.53;100.00
60715;BME280;46564;53.096;8.246;2023-07-24T20:34:14;57128.34;;;-147.53;100.00
60715;BME280;46564;53.096;8.246;2023-07-24T20:39:15;57128.34;;;-147.53;100.00
60715;BME280;46564;53.096;8.246;2023-07-24T20:44:17;57128.34;;;-147.53;100.00
60715;BME280;46564;53.096;8.246;2023-07-24T20:49:18;57128.34;;;-147.53;100.00
60715;BME280;46564;53.096;8.246;2023-07-24T20:54:19;57128.34;;;-147.53;100.00
60715;BME280;46564;53.096;8.246;2023-07-24T20:59:21;57128.34;;;-147.53;100.00
60715;BME280;46564;53.096;8.246;2023-07-24T21:04:22;57128.34;;;-147.53;100.00
60715;BME280;46564;53.096;8.246;2023-07-24T21:09:24;57128.34;;;-147.53;100.00
60715;BME280;46564;53.096;8.246;2023-07-24T21:14:25;57128.34;;;-147.53;100.00
60715;BME280;46564;53.096;8.246;2023-07-24T21:19:27;57128.34;;;-147.53;100.00
60715;BME280;46564;53.096;8.246;2023-07-24T21:24:28;57128.34;;;-147.53;100.00
60715;BME280;46564;53.096;8.246;2023-07-24T21:29:29;57128.34;;;-147.53;100.00
60715;BME280;46564;53.096;8.246;2023-07-24T21:34:31;57128.34;;;-147.53;100.00
60715;BME280;46564;53.096;8.246;2023-07-24T21:39:33;57128.34;;;-147.53;100.00
60715;BME280;46564;53.096;8.246;2023-07-24T21:44:34;57128.34;;;-147.53;100.00
60715;BME280;46564;53.096;8.246;2023-07-24T21:49:35;57128.34;;;-147.53;100.00
60715;BME280;46564;53.096;8.246;2023-07-24T21:54:37;57128.34;;;-147.53;100.00
60715;BME280;46564;53.096;8.246;2023-07-24T21:59:38;57128.34;;;-147.53;100.00
60715;BME280;46564;53.096;8.246;2023-07-24T22:04:40;57128.34;;;-147.53;100.00
60715;BME280;46564;53.096;8.246;2023-07-24T22:09:41;57128.34;;;-147.53;100.00
60715;BME280;46564;53.096;8.246;2023-07-24T22:14:42;57128.34;;;-147.53;100.00
60715;BME280;46564;53.096;8.246;2023-07-24T22:19:44;57128.34;;;-147.53;100.00
60715;BME280;46564;53.096;8.246;2023-07-24T22:24:45;57128.34;;;-147.53;100.00
60715;BME280;46564;53.096;8.246;2023-07-24T22:29:47;57128.34;;;-147.53;100.00
60715;BME280;46564;53.096;8.246;2023-07-24T22:34:49;57128.34;;;-147.53;100.00
60715;BME280;46564;53.096;8.246;2023-07-24T22:39:51;57128.34;;;-147.53;100.00
60715;BME280;46564;53.096;8.246;2023-07-24T22:44:53;57128.34;;;-147.53;100.00
60715;BME280;46564;53.096;8.246;2023-07-24T22:49:54;57128.34;;;-147.53;100.00
60715;BME280;46564;53.096;8.246;2023-07-24T22:54:56;57128.34;;;-147.53;100.00
60715;BME280;46564;53.096;8.246;2023-07-24T22:59:57;57128.34;;;-147.53;100.00
60715;BME280;46564;53.096;8.246;2023-07-24T23:04:59;57128.34;;;-147.53;100.00
60715;BME280;46564;53.096;8.246;2023-07-24T23:10:00;57128.34;;;-147.53;100.00
60715;BME280;46564;53.096;8.246;2023-07-24T23:15:02;57128.34;;;-147.53;100.00
60715;BME280;46564;53.096;8.246;2023-07-24T23:20:04;57128.34;;;-147.53;100.00
60715;BME280;46564;53.096;8.246;2023-07-24T23:25:06;57128.34;;;-147.53;100.00
60715;BME280;46564;53.096;8.246;2023-07-24T23:30:08;57128.34;;;-147.53;100.00
60715;BME280;46564;53.096;8.246;2023-07-24T23:35:09;57128.34;;;-147.53;100.00
60715;BME280;46564;53.096;8.246;2023-07-24T23:40:11;57128.34;;;-147.53;100.00
60715;BME280;46564;53.096;8.246;2023-07-24T23:45:12;57128.34;;;-147.53;100.00
60715;BME280;46564;53.096;8.246;2023-07-24T23:50:14;57128.34;;;-147.53;100.00
60715;BME280;46564;53.096;8.246;2023-07-24T23:55:15;57128.34;;;-147.53;100.00
